createdAt,value
2024-01-15T00:01:03.154Z,-2.05
2024-01-15T00:03:29.866Z,-2.00
2024-01-15T00:05:56.665Z,-2.01
2024-01-15T00:08:23.491Z,-1.92
2024-01-15T00:10:50.167Z,-1.88
2024-01-15T00:13:16.819Z,-2.68
2024-01-15T00:15:43.595Z,-2.86
2024-01-15T00:18:10.363Z,-2.90
2024-01-15T00:20:37.113Z,-2.18
2024-01-15T00:23:03.877Z,-2.00
2024-01-15T00:25:30.492Z,-2.15
2024-01-15T00:27:57.129Z,-2.23
2024-01-15T00:30:23.862Z,-2.17
2024-01-15T00:32:50.702Z,-2.35
2024-01-15T00:35:17.437Z,-2.52
2024-01-15T00:37:44.092Z,-2.22
2024-01-15T00:40:10.689Z,-2.43
2024-01-15T00:42:37.391Z,-2.40
2024-01-15T00:45:04.114Z,-2.47
2024-01-15T00:47:30.852Z,-2.41
2024-01-15T00:49:57.530Z,-2.10
2024-01-15T00:52:24.216Z,-2.53
2024-01-15T00:54:50.928Z,-2.37
2024-01-15T00:57:17.637Z,-2.75
2024-01-15T00:59:44.357Z,-3.17
2024-01-15T01:02:10.976Z,-2.89
2024-01-15T01:04:37.608Z,-2.33
2024-01-15T01:07:04.296Z,-2.62
2024-01-15T01:09:30.981Z,-2.49
2024-01-15T01:11:57.627Z,-2.52
2024-01-15T01:14:24.359Z,-2.54
2024-01-15T01:16:50.968Z,-2.60
2024-01-15T01:19:17.870Z,-2.77
2024-01-15T01:21:44.758Z,-2.52
2024-01-15T01:24:11.506Z,-2.55
2024-01-15T01:26:38.148Z,-2.30
2024-01-15T01:29:06.487Z,-2.24
2024-01-15T01:31:33.156Z,-2.63
2024-01-15T01:34:00.011Z,-2.57
2024-01-15T01:36:26.786Z,-2.88
2024-01-15T01:38:53.440Z,-2.46
2024-01-15T01:41:20.055Z,-2.28
2024-01-15T01:43:46.745Z,-2.27
2024-01-15T01:46:13.410Z,-2.16
2024-01-15T01:48:40.242Z,-2.16
2024-01-15T01:51:07.018Z,-2.15
2024-01-15T01:53:33.634Z,-2.42
2024-01-15T01:56:00.248Z,-2.15
2024-01-15T01:58:27.028Z,-2.10
2024-01-15T02:00:53.790Z,-2.62
2024-01-15T02:03:20.466Z,-2.59
2024-01-15T02:05:47.323Z,-2.23
2024-01-15T02:08:13.965Z,-2.46
2024-01-15T02:10:40.616Z,-2.36
2024-01-15T02:13:07.305Z,-2.34
2024-01-15T02:15:33.944Z,-2.48
2024-01-15T02:18:00.723Z,-2.28
2024-01-15T02:20:27.474Z,-2.29
2024-01-15T02:22:54.115Z,-2.58
2024-01-15T02:25:20.737Z,-2.88
2024-01-15T02:27:47.430Z,-2.60
2024-01-15T02:30:14.264Z,-3.05
2024-01-15T02:32:41.020Z,-2.43
2024-01-15T02:35:07.822Z,-2.55
2024-01-15T02:37:34.465Z,-2.25
2024-01-15T02:40:01.140Z,-2.02
2024-01-15T02:42:27.957Z,-3.05
2024-01-15T02:44:54.615Z,-3.17
2024-01-15T02:47:21.264Z,-2.82
2024-01-15T02:49:48.048Z,-2.49
2024-01-15T02:52:14.760Z,-2.28
2024-01-15T02:54:41.499Z,-2.35
2024-01-15T02:57:10.714Z,-2.02
2024-01-15T02:59:37.374Z,-1.92
2024-01-15T03:02:03.994Z,-2.02
2024-01-15T03:04:30.739Z,-2.36
2024-01-15T03:06:57.435Z,-2.24
2024-01-15T03:09:24.104Z,-1.94
2024-01-15T03:11:50.783Z,-1.82
2024-01-15T03:14:17.418Z,-1.64
2024-01-15T03:16:44.046Z,-1.83
2024-01-15T03:19:10.779Z,-1.61
2024-01-15T03:21:37.537Z,-1.51
2024-01-15T03:24:04.227Z,-2.05
2024-01-15T03:26:30.909Z,-1.65
2024-01-15T03:28:57.510Z,-1.88
2024-01-15T03:31:24.264Z,-2.48
2024-01-15T03:33:51.106Z,-2.57
2024-01-15T03:36:17.785Z,-2.55
2024-01-15T03:38:44.441Z,-3.12
2024-01-15T03:41:11.146Z,-2.62
2024-01-15T03:43:37.758Z,-2.57
2024-01-15T03:46:04.412Z,-2.23
2024-01-15T03:48:31.286Z,-2.70
2024-01-15T03:50:57.977Z,-2.05
2024-01-15T03:53:24.606Z,-1.63
2024-01-15T03:55:51.463Z,-1.52
2024-01-15T03:58:18.091Z,-1.37
2024-01-15T04:00:44.830Z,-2.54
2024-01-15T04:03:11.564Z,-2.06
2024-01-15T04:05:38.320Z,-1.94
2024-01-15T04:08:04.985Z,-2.09
2024-01-15T04:10:31.757Z,-1.87
2024-01-15T04:12:58.451Z,-1.97
2024-01-15T04:15:25.119Z,-2.69
2024-01-15T04:17:53.758Z,-2.12
2024-01-15T04:20:22.913Z,-1.50
2024-01-15T04:22:50.372Z,-1.30
2024-01-15T04:25:17.066Z,-1.43
2024-01-15T04:27:43.737Z,-0.95
2024-01-15T04:30:10.493Z,-0.85
2024-01-15T04:32:37.266Z,-1.06
2024-01-15T04:35:03.970Z,-1.09
2024-01-15T04:37:30.599Z,-0.91
2024-01-15T04:39:57.339Z,-1.20
2024-01-15T04:42:24.008Z,-1.14
2024-01-15T04:44:51.084Z,-1.04
2024-01-15T04:47:17.776Z,-1.12
2024-01-15T04:49:44.436Z,-1.11
2024-01-15T04:52:11.105Z,-1.11
2024-01-15T04:54:37.863Z,-0.87
2024-01-15T04:57:04.513Z,-1.74
2024-01-15T04:59:31.137Z,-2.01
2024-01-15T05:01:57.817Z,-1.44
2024-01-15T05:04:24.472Z,-1.28
2024-01-15T05:06:51.242Z,-1.16
2024-01-15T05:09:18.009Z,-0.89
2024-01-15T05:11:44.633Z,-0.89
2024-01-15T05:14:11.287Z,-0.93
2024-01-15T05:16:37.957Z,-1.18
2024-01-15T05:19:04.691Z,-0.75
2024-01-15T05:21:31.422Z,-0.76
2024-01-15T05:23:58.121Z,-0.62
2024-01-15T05:26:24.746Z,-0.96
2024-01-15T05:28:51.392Z,-1.05
2024-01-15T05:31:18.187Z,-1.02
2024-01-15T05:33:44.931Z,-1.01
2024-01-15T05:36:11.623Z,-0.95
2024-01-15T05:38:38.319Z,-0.94
2024-01-15T05:41:04.938Z,-1.01
2024-01-15T05:43:31.565Z,-1.15
2024-01-15T05:45:58.458Z,-0.92
2024-01-15T05:48:25.314Z,-1.38
2024-01-15T05:50:52.014Z,-1.22
2024-01-15T05:53:18.707Z,-1.28
2024-01-15T05:55:45.317Z,-1.10
2024-01-15T05:58:11.936Z,-1.26
2024-01-15T06:00:38.690Z,-1.41
2024-01-15T06:03:05.355Z,-1.10
2024-01-15T06:05:32.004Z,-1.54
2024-01-15T06:07:58.736Z,-1.32
2024-01-15T06:10:25.378Z,-1.16
2024-01-15T06:12:52.100Z,-1.31
2024-01-15T06:15:18.854Z,-1.43
2024-01-15T06:17:45.587Z,-1.94
2024-01-15T06:20:12.300Z,-1.89
2024-01-15T06:22:39.004Z,-2.33
2024-01-15T06:25:05.652Z,-1.84
2024-01-15T06:27:32.318Z,-1.49
2024-01-15T06:29:59.041Z,-1.51
2024-01-15T06:32:25.933Z,-1.62
2024-01-15T06:34:52.723Z,-1.51
2024-01-15T06:37:19.432Z,-1.79
2024-01-15T06:39:46.134Z,-1.56
2024-01-15T06:42:12.959Z,-2.03
2024-01-15T06:44:39.647Z,-1.90
2024-01-15T06:47:06.263Z,-1.84
2024-01-15T06:49:32.980Z,-1.68
2024-01-15T06:51:59.875Z,-1.72
2024-01-15T06:54:26.558Z,-1.91
2024-01-15T06:56:53.188Z,-1.77
2024-01-15T06:59:20.528Z,-1.51
2024-01-15T07:01:47.322Z,-1.57
2024-01-15T07:04:14.022Z,-1.88
2024-01-15T07:06:40.779Z,-1.65
2024-01-15T07:09:07.422Z,-1.63
2024-01-15T07:11:34.082Z,-1.62
2024-01-15T07:14:00.776Z,-1.68
2024-01-15T07:16:36.531Z,-1.56
2024-01-15T07:19:05.003Z,-1.43
2024-01-15T07:21:31.771Z,-1.58
2024-01-15T07:23:58.419Z,-2.12
2024-01-15T07:26:25.119Z,-1.57
2024-01-15T07:28:51.762Z,-1.82
2024-01-15T07:31:18.466Z,-1.60
2024-01-15T07:33:45.261Z,-2.00
2024-01-15T07:36:11.974Z,-1.58
2024-01-15T07:38:38.624Z,-1.27
2024-01-15T07:41:05.293Z,-1.25
2024-01-15T07:43:31.952Z,-1.22
2024-01-15T07:45:58.652Z,-0.96
2024-01-15T07:48:25.666Z,-0.88
2024-01-15T07:50:52.416Z,-0.64
2024-01-15T07:53:19.076Z,-0.75
2024-01-15T07:55:45.744Z,-0.55
2024-01-15T07:58:16.381Z,-0.58
2024-01-15T08:00:44.048Z,-0.20
2024-01-15T08:03:10.951Z,-0.06
2024-01-15T08:05:37.611Z,-0.21
2024-01-15T08:08:04.249Z,-0.17
2024-01-15T08:10:30.924Z,-0.02
2024-01-15T08:12:57.615Z,0.14
2024-01-15T08:15:25.048Z,-0.04
2024-01-15T08:17:52.689Z,-0.07
2024-01-15T08:20:19.459Z,0.16
2024-01-15T08:22:46.139Z,0.21
2024-01-15T08:25:12.796Z,0.43
2024-01-15T08:27:39.502Z,0.44
2024-01-15T08:30:06.147Z,0.57
2024-01-15T08:32:32.859Z,0.44
2024-01-15T08:34:59.716Z,0.49
2024-01-15T08:37:26.467Z,0.83
2024-01-15T08:39:53.158Z,0.66
2024-01-15T08:42:19.884Z,1.11
2024-01-15T08:44:46.513Z,1.32
2024-01-15T08:47:15.332Z,0.98
2024-01-15T08:49:42.231Z,0.80
2024-01-15T08:52:08.888Z,1.24
2024-01-15T08:54:35.565Z,1.58
2024-01-15T08:57:02.200Z,1.64
2024-01-15T08:59:28.845Z,1.97
2024-01-15T09:01:55.615Z,1.91
2024-01-15T09:04:22.368Z,1.68
2024-01-15T09:06:49.101Z,1.80
2024-01-15T09:09:15.975Z,1.79
2024-01-15T09:11:42.691Z,2.18
2024-01-15T09:14:09.340Z,1.46
2024-01-15T09:16:36.072Z,1.07
2024-01-15T09:19:02.782Z,1.23
2024-01-15T09:21:29.481Z,1.52
2024-01-15T09:23:56.246Z,1.87
2024-01-15T09:26:22.902Z,2.10
2024-01-15T09:28:49.547Z,2.46
2024-01-15T09:31:16.324Z,2.35
2024-01-15T09:33:43.093Z,2.57
2024-01-15T09:36:09.869Z,2.31
2024-01-15T09:38:36.590Z,2.53
2024-01-15T09:41:03.210Z,3.27
2024-01-15T09:43:29.821Z,3.33
2024-01-15T09:45:56.588Z,3.53
2024-01-15T09:48:23.409Z,3.36
2024-01-15T09:50:50.092Z,3.73
2024-01-15T09:53:16.745Z,4.02
2024-01-15T09:55:43.378Z,4.14
2024-01-15T09:58:09.984Z,3.73
2024-01-15T10:00:36.736Z,4.26
2024-01-15T10:03:03.422Z,4.51
2024-01-15T10:05:30.053Z,4.88
2024-01-15T10:07:57.018Z,4.29
2024-01-15T10:10:23.730Z,5.03
2024-01-15T10:12:50.413Z,5.27
2024-01-15T10:15:17.175Z,5.09
2024-01-15T10:17:43.862Z,5.57
2024-01-15T10:20:10.629Z,5.58
2024-01-15T10:22:37.325Z,5.88
2024-01-15T10:25:04.054Z,6.09
2024-01-15T10:27:30.753Z,6.18
2024-01-15T10:29:57.470Z,6.26
2024-01-15T10:32:24.176Z,6.41
2024-01-15T10:34:50.895Z,6.61
2024-01-15T10:37:17.593Z,6.40
2024-01-15T10:39:44.237Z,6.71
2024-01-15T10:42:10.929Z,6.80
2024-01-15T10:44:37.624Z,7.22
2024-01-15T10:47:04.296Z,7.46
2024-01-15T10:49:33.007Z,7.14
2024-01-15T10:52:00.798Z,7.54
2024-01-15T10:54:27.512Z,7.92
2024-01-15T10:56:54.180Z,7.54
2024-01-15T10:59:20.843Z,7.84
2024-01-15T11:01:47.575Z,8.15
2024-01-15T11:04:14.385Z,8.47
2024-01-15T11:06:41.184Z,8.60
2024-01-15T11:09:07.852Z,8.80
2024-01-15T11:11:34.486Z,8.47
2024-01-15T11:14:01.181Z,8.48
2024-01-15T11:16:27.809Z,8.32
2024-01-15T11:18:54.545Z,7.65
2024-01-15T11:21:21.342Z,7.67
2024-01-15T11:23:51.374Z,8.02
2024-01-15T11:26:20.542Z,8.57
2024-01-15T11:28:47.237Z,8.02
2024-01-15T11:31:13.919Z,8.16
2024-01-15T11:33:40.697Z,8.60
2024-01-15T11:36:07.503Z,8.76
2024-01-15T11:38:34.180Z,8.77
2024-01-15T11:41:00.816Z,8.27
2024-01-15T11:43:27.513Z,8.14
2024-01-15T11:45:54.318Z,8.30
2024-01-15T11:48:21.061Z,8.06
2024-01-15T11:50:47.764Z,8.71
2024-01-15T11:53:14.405Z,8.21
2024-01-15T11:55:41.034Z,8.57
2024-01-15T11:58:07.716Z,9.12
2024-01-15T12:00:34.338Z,9.31
2024-01-15T12:03:00.999Z,9.13
2024-01-15T12:05:27.661Z,9.20
2024-01-15T12:07:54.375Z,8.71
2024-01-15T12:10:20.989Z,8.67
2024-01-15T12:12:47.741Z,8.76
2024-01-15T12:15:14.417Z,9.08
2024-01-15T12:17:41.091Z,9.42
2024-01-15T12:20:07.814Z,9.07
2024-01-15T12:22:48.276Z,9.31
2024-01-15T12:25:20.419Z,9.49
2024-01-15T12:27:47.154Z,9.24
2024-01-15T12:30:13.918Z,9.14
2024-01-15T12:32:40.612Z,8.91
2024-01-15T12:35:07.239Z,9.17
2024-01-15T12:37:33.974Z,9.29
2024-01-15T12:40:00.687Z,9.23
2024-01-15T12:42:27.381Z,9.47
2024-01-15T12:44:54.016Z,9.09
2024-01-15T12:47:20.723Z,9.69
2024-01-15T12:49:47.460Z,9.00
2024-01-15T12:52:14.114Z,9.83
2024-01-15T12:54:40.819Z,10.29
2024-01-15T12:57:07.444Z,10.06
2024-01-15T12:59:34.096Z,10.37
2024-01-15T13:02:00.780Z,10.44
2024-01-15T13:04:27.572Z,10.72
2024-01-15T13:06:54.431Z,10.82
2024-01-15T13:09:21.338Z,9.83
2024-01-15T13:11:47.974Z,10.11
2024-01-15T13:14:14.592Z,10.02
2024-01-15T13:16:41.278Z,9.81
2024-01-15T13:19:08.105Z,10.22
2024-01-15T13:21:34.813Z,10.40
2024-01-15T13:24:01.479Z,10.55
2024-01-15T13:26:28.189Z,10.48
2024-01-15T13:28:54.853Z,10.76
2024-01-15T13:31:21.578Z,10.61
2024-01-15T13:33:48.339Z,10.86
2024-01-15T13:36:15.231Z,10.74
2024-01-15T13:38:41.955Z,10.55
2024-01-15T13:41:08.597Z,9.49
2024-01-15T13:43:35.216Z,9.52
2024-01-15T13:46:01.977Z,9.69
2024-01-15T13:48:28.696Z,9.77
2024-01-15T13:50:55.381Z,9.55
2024-01-15T13:53:22.125Z,9.49
2024-01-15T13:55:48.798Z,9.32
2024-01-15T13:58:15.429Z,8.82
2024-01-15T14:00:42.159Z,8.87
2024-01-15T14:03:09.040Z,8.80
2024-01-15T14:05:35.815Z,8.96
2024-01-15T14:08:02.491Z,9.09
2024-01-15T14:10:29.180Z,8.84
2024-01-15T14:12:55.970Z,8.36
2024-01-15T14:15:22.830Z,8.50
2024-01-15T14:17:49.557Z,8.73
2024-01-15T14:20:17.927Z,8.75
2024-01-15T14:22:45.870Z,8.53
2024-01-15T14:25:12.554Z,8.34
2024-01-15T14:27:39.237Z,8.33
2024-01-15T14:30:06.028Z,8.33
2024-01-15T14:32:32.732Z,8.44
2024-01-15T14:34:59.566Z,8.38
2024-01-15T14:37:26.402Z,8.46
2024-01-15T14:39:53.037Z,8.43
2024-01-15T14:42:19.702Z,8.28
2024-01-15T14:44:46.393Z,8.31
2024-01-15T14:47:13.023Z,8.42
2024-01-15T14:49:39.732Z,8.15
2024-01-15T14:52:06.544Z,7.99
2024-01-15T14:54:33.192Z,8.10
2024-01-15T14:56:59.831Z,8.10
2024-01-15T14:59:26.516Z,7.89
2024-01-15T15:01:53.198Z,6.97
2024-01-15T15:04:19.865Z,7.17
2024-01-15T15:06:46.623Z,7.29
2024-01-15T15:09:13.497Z,7.42
2024-01-15T15:11:40.253Z,7.46
2024-01-15T15:14:06.945Z,7.59
2024-01-15T15:16:33.624Z,7.52
2024-01-15T15:19:00.427Z,7.56
2024-01-15T15:21:27.240Z,7.54
2024-01-15T15:23:53.853Z,7.34
2024-01-15T15:26:20.478Z,7.64
2024-01-15T15:28:47.189Z,7.36
2024-01-15T15:31:13.789Z,7.37
2024-01-15T15:33:40.706Z,7.37
2024-01-15T15:36:07.578Z,6.72
2024-01-15T15:38:34.222Z,7.15
2024-01-15T15:41:00.902Z,6.80
2024-01-15T15:43:27.629Z,6.69
2024-01-15T15:45:54.353Z,6.98
2024-01-15T15:48:21.109Z,7.24
2024-01-15T15:50:47.871Z,7.04
2024-01-15T15:53:14.653Z,7.14
2024-01-15T15:55:41.346Z,6.89
2024-01-15T15:58:09.299Z,6.73
2024-01-15T16:00:36.330Z,6.98
2024-01-15T16:03:03.154Z,6.88
2024-01-15T16:05:37.983Z,6.84
2024-01-15T16:08:12.013Z,6.69
2024-01-15T16:10:38.700Z,6.51
2024-01-15T16:13:05.414Z,6.26
2024-01-15T16:15:32.112Z,6.31
2024-01-15T16:23:18.191Z,5.86
2024-01-15T16:23:32.604Z,6.25
2024-01-15T16:24:05.839Z,6.34
2024-01-15T16:26:18.742Z,6.24
2024-01-15T16:28:45.706Z,6.11
2024-01-15T16:31:12.327Z,6.04
2024-01-15T16:33:38.966Z,5.76
2024-01-15T16:36:05.684Z,5.94
2024-01-15T16:38:32.428Z,5.94
2024-01-15T16:40:59.172Z,6.02
2024-01-15T16:43:25.976Z,6.05
2024-01-15T16:45:52.619Z,5.95
2024-01-15T16:48:19.415Z,5.90
2024-01-15T16:50:46.348Z,5.70
2024-01-15T16:53:13.060Z,6.09
2024-01-15T16:55:39.735Z,6.13
2024-01-15T16:58:06.433Z,6.37
2024-01-15T17:00:33.054Z,6.43
2024-01-15T17:02:59.853Z,6.10
2024-01-15T17:05:26.649Z,5.98
2024-01-15T17:07:53.351Z,5.58
2024-01-15T17:10:19.963Z,5.75
2024-01-15T17:12:46.654Z,5.50
2024-01-15T17:15:13.308Z,5.98
2024-01-15T17:17:40.063Z,5.93
2024-01-15T17:20:06.789Z,6.20
2024-01-15T17:22:33.436Z,6.24
2024-01-15T17:25:00.070Z,6.29
2024-01-15T17:27:26.848Z,6.15
2024-01-15T17:29:53.472Z,5.92
2024-01-15T17:32:20.114Z,5.87
2024-01-15T17:34:46.788Z,5.35
2024-01-15T17:37:13.414Z,4.83
2024-01-15T17:39:40.058Z,4.98
2024-01-15T17:42:06.752Z,5.03
2024-01-15T17:44:38.600Z,5.38
2024-01-15T17:47:05.443Z,5.10
2024-01-15T17:49:32.517Z,5.54
2024-01-15T17:51:59.138Z,5.46
2024-01-15T17:54:25.785Z,5.49
2024-01-15T17:56:52.502Z,5.37
2024-01-15T17:59:19.137Z,5.59
2024-01-15T18:01:45.789Z,5.51
2024-01-15T18:04:12.546Z,5.75
2024-01-15T18:06:39.237Z,5.96
2024-01-15T18:09:07.092Z,5.80
2024-01-15T18:11:34.795Z,5.49
2024-01-15T18:14:01.454Z,5.15
2024-01-15T18:16:28.091Z,5.50
2024-01-15T18:18:54.850Z,5.30
2024-01-15T18:21:21.540Z,5.65
2024-01-15T18:23:48.217Z,5.46
2024-01-15T18:26:14.921Z,5.22
2024-01-15T18:28:41.561Z,4.75
2024-01-15T18:31:08.190Z,5.22
2024-01-15T18:33:34.938Z,5.38
2024-01-15T18:36:01.613Z,5.45
2024-01-15T18:38:28.285Z,5.39
2024-01-15T18:40:55.050Z,5.26
2024-01-15T18:43:21.680Z,5.33
2024-01-15T18:45:48.295Z,5.30
2024-01-15T18:48:15.060Z,4.84
2024-01-15T18:50:41.822Z,4.30
2024-01-15T18:53:08.586Z,3.90
2024-01-15T18:55:35.282Z,3.90
2024-01-15T18:58:01.888Z,4.53
2024-01-15T19:00:28.519Z,4.86
2024-01-15T19:02:55.360Z,4.82
2024-01-15T19:05:22.134Z,4.03
2024-01-15T19:07:48.823Z,3.35
2024-01-15T19:10:15.497Z,3.47
2024-01-15T19:12:42.112Z,4.09
2024-01-15T19:15:08.862Z,3.95
2024-01-15T19:17:35.595Z,4.03
2024-01-15T19:20:02.341Z,3.89
2024-01-15T19:22:29.000Z,2.92
2024-01-15T19:24:55.684Z,2.87
2024-01-15T19:27:22.287Z,3.60
2024-01-15T19:29:49.027Z,4.17
2024-01-15T19:32:15.718Z,4.05
2024-01-15T19:34:42.370Z,3.76
2024-01-15T19:37:09.005Z,3.61
2024-01-15T19:39:35.665Z,3.61
2024-01-15T19:42:02.274Z,3.69
2024-01-15T19:44:28.998Z,4.02
2024-01-15T19:46:55.785Z,3.90
2024-01-15T19:49:22.416Z,3.43
2024-01-15T19:51:49.060Z,3.67
2024-01-15T19:54:15.763Z,3.69
2024-01-15T19:56:42.564Z,3.18
2024-01-15T19:59:09.320Z,3.47
2024-01-15T20:01:36.078Z,3.87
2024-01-15T20:04:02.713Z,3.93
2024-01-15T20:06:29.407Z,3.53
2024-01-15T20:08:56.189Z,3.07
2024-01-15T20:11:22.851Z,3.03
2024-01-15T20:13:49.697Z,2.95
2024-01-15T20:16:16.425Z,3.21
2024-01-15T20:18:43.266Z,3.27
2024-01-15T20:21:10.019Z,2.51
2024-01-15T20:23:43.099Z,2.43
2024-01-15T20:26:17.365Z,2.00
2024-01-15T20:28:44.083Z,1.89
2024-01-15T20:31:10.718Z,2.47
2024-01-15T20:33:37.537Z,2.14
2024-01-15T20:36:04.324Z,1.46
2024-01-15T20:38:31.051Z,2.46
2024-01-15T20:40:57.704Z,2.25
2024-01-15T20:43:24.383Z,2.42
2024-01-15T20:45:50.993Z,1.70
2024-01-15T20:48:17.650Z,1.86
2024-01-15T20:50:44.491Z,1.77
2024-01-15T20:53:11.236Z,2.07
2024-01-15T20:55:37.894Z,2.23
2024-01-15T20:58:04.640Z,2.36
2024-01-15T21:00:31.282Z,2.44
2024-01-15T21:02:58.035Z,2.55
2024-01-15T21:05:24.916Z,1.57
2024-01-15T21:07:51.682Z,1.63
2024-01-15T21:10:18.384Z,1.59
2024-01-15T21:12:45.124Z,1.82
2024-01-15T21:15:11.746Z,1.07
2024-01-15T21:17:38.455Z,1.19
2024-01-15T21:20:05.227Z,1.72
2024-01-15T21:22:31.894Z,2.02
2024-01-15T21:24:58.528Z,1.69
2024-01-15T21:27:25.250Z,1.11
2024-01-15T21:29:51.935Z,1.49
2024-01-15T21:32:18.601Z,1.31
2024-01-15T21:34:45.301Z,1.35
2024-01-15T21:37:11.952Z,1.27
2024-01-15T21:39:38.602Z,1.54
2024-01-15T21:42:05.483Z,1.52
2024-01-15T21:44:32.127Z,1.45
2024-01-15T21:46:58.744Z,1.69
2024-01-15T21:49:25.496Z,1.74
2024-01-15T21:51:52.191Z,1.06
2024-01-15T21:54:18.822Z,1.33
2024-01-15T21:56:45.551Z,0.93
2024-01-15T21:59:12.310Z,0.95
2024-01-15T22:01:38.969Z,1.04
2024-01-15T22:04:05.677Z,0.79
2024-01-15T22:06:32.381Z,0.77
2024-01-15T22:08:59.061Z,1.26
2024-01-15T22:11:25.774Z,0.75
2024-01-15T22:13:52.432Z,0.96
2024-01-15T22:16:19.048Z,1.33
2024-01-15T22:18:45.881Z,1.26
2024-01-15T22:21:12.642Z,1.49
2024-01-15T22:23:39.379Z,1.74
2024-01-15T22:26:06.275Z,2.07
2024-01-15T22:28:32.932Z,2.14
2024-01-15T22:30:59.576Z,2.27
2024-01-15T22:33:26.475Z,2.31
2024-01-15T22:35:53.283Z,2.04
2024-01-15T22:38:19.939Z,2.13
2024-01-15T22:40:46.673Z,2.60
2024-01-15T22:43:13.368Z,2.83
2024-01-15T22:45:40.261Z,2.84
2024-01-15T22:48:07.326Z,2.81
2024-01-15T22:50:34.109Z,2.44
2024-01-15T22:53:00.813Z,2.82
2024-01-15T22:55:27.597Z,2.66
2024-01-15T22:57:54.206Z,2.63
2024-01-15T23:00:20.892Z,3.02
2024-01-15T23:02:47.750Z,3.03
2024-01-15T23:05:14.531Z,2.97
2024-01-15T23:07:41.244Z,2.95
2024-01-15T23:10:07.977Z,2.91
2024-01-15T23:12:34.656Z,2.85
2024-01-15T23:15:01.330Z,3.06
2024-01-15T23:17:28.126Z,3.28
2024-01-15T23:19:54.801Z,2.57
2024-01-15T23:22:21.429Z,2.61
2024-01-15T23:24:48.145Z,3.13
2024-01-15T23:27:14.769Z,3.27
2024-01-15T23:29:41.411Z,3.09
2024-01-15T23:32:08.171Z,3.52
2024-01-15T23:34:34.902Z,3.31
2024-01-15T23:37:01.574Z,3.67
2024-01-15T23:39:28.257Z,3.68
2024-01-15T23:41:54.992Z,3.73
2024-01-15T23:44:21.654Z,3.78
2024-01-15T23:46:48.368Z,3.53
2024-01-15T23:49:15.047Z,3.83
2024-01-15T23:51:41.716Z,3.05
2024-01-15T23:54:08.392Z,3.11
2024-01-15T23:56:35.168Z,3.18
2024-01-15T23:59:01.827Z,3.36
